Sutter, Illinois
Current Conditions -  °F | °C
As of 4:55 AM on Saturday 25 Oct 2014 (Local Time) from KEOK Reporting Station
Moderate Fog Moderate Fog  
Wind Chill: 54°   Ceiling: 200
Heat Index: 54°   Visibility: 0mi
Dew Point: 54°   Wind: 3mph
Humidity: 100%   Direction: 270°W
Pressure: 29.97"   Gusts: NA
Location:  40.28°N, 91.34°W
Report Text: KEOK 250955Z AUTO 27003KT M1/4SM FG OVC002 12/12 A2997 RMK AO2
Loading
Personal Weather Stations






























Interactive Weather Map
Tropical Storm Tracking
New forecast layout! Learn more

10-Day Weather Forecast

Advertisements
Track Severe Weather on mobile